createdAt,value
2018-12-11T00:01:03.839Z,3.40
2018-12-11T00:02:09.275Z,3.40
2018-12-11T00:03:14.794Z,3.30
2018-12-11T00:04:20.252Z,3.30
2018-12-11T00:05:25.708Z,3.40
2018-12-11T00:06:31.319Z,3.40
2018-12-11T00:07:36.777Z,3.40
2018-12-11T00:08:42.364Z,3.40
2018-12-11T00:09:47.838Z,3.40
2018-12-11T00:10:53.289Z,3.40
2018-12-11T00:11:58.828Z,3.40
2018-12-11T00:13:04.276Z,3.40
2018-12-11T00:14:09.764Z,3.30
2018-12-11T00:15:15.345Z,3.30
2018-12-11T00:16:20.954Z,3.30
2018-12-11T00:17:26.337Z,3.30
2018-12-11T00:18:31.751Z,3.30
2018-12-11T00:19:37.243Z,3.20
2018-12-11T00:20:42.643Z,3.20
2018-12-11T00:21:48.109Z,3.20
2018-12-11T00:22:53.555Z,3.20
2018-12-11T00:23:59.089Z,3.20
2018-12-11T00:25:04.878Z,3.10
2018-12-11T00:26:10.436Z,3.10
2018-12-11T00:27:15.935Z,3.20
2018-12-11T00:28:21.379Z,3.20
2018-12-11T00:29:26.868Z,3.20
2018-12-11T00:30:32.440Z,3.20
2018-12-11T00:31:37.910Z,3.20
2018-12-11T00:32:43.829Z,3.20
2018-12-11T00:33:49.319Z,3.20
2018-12-11T00:34:54.883Z,3.10
2018-12-11T00:36:00.380Z,3.10
2018-12-11T00:37:05.827Z,3.10
2018-12-11T00:38:11.329Z,3.20
2018-12-11T00:39:16.828Z,3.20
2018-12-11T00:40:22.454Z,3.20
2018-12-11T00:41:27.861Z,3.30
2018-12-11T00:42:33.302Z,3.30
2018-12-11T00:43:38.754Z,3.30
2018-12-11T00:44:44.195Z,3.40
2018-12-11T00:45:49.705Z,3.40
2018-12-11T00:46:55.111Z,3.50
2018-12-11T00:48:00.478Z,3.50
2018-12-11T00:49:06.032Z,3.60
2018-12-11T00:50:11.558Z,3.60
2018-12-11T00:51:17.032Z,3.60
2018-12-11T00:52:22.546Z,3.60
2018-12-11T00:53:27.988Z,3.50
2018-12-11T00:54:33.446Z,3.60
2018-12-11T00:55:38.850Z,3.60
2018-12-11T00:56:44.414Z,3.50
2018-12-11T00:57:49.859Z,3.60
2018-12-11T00:58:55.267Z,3.50
2018-12-11T01:00:00.744Z,3.50
2018-12-11T01:01:06.197Z,3.50
2018-12-11T01:02:11.728Z,3.50
2018-12-11T01:03:17.278Z,3.50
2018-12-11T01:04:22.804Z,3.50
2018-12-11T01:05:28.267Z,3.50
2018-12-11T01:06:33.899Z,3.50
2018-12-11T01:07:39.358Z,3.50
2018-12-11T01:08:44.778Z,3.40
2018-12-11T01:09:50.417Z,3.40
2018-12-11T01:10:55.875Z,3.40
2018-12-11T01:12:01.297Z,3.40
2018-12-11T01:13:06.879Z,3.40
2018-12-11T01:14:12.270Z,3.40
2018-12-11T01:15:17.759Z,3.40
2018-12-11T01:16:23.142Z,3.40
2018-12-11T01:17:28.847Z,3.30
2018-12-11T01:18:34.306Z,3.30
2018-12-11T01:19:39.814Z,3.30
2018-12-11T01:20:45.213Z,3.40
2018-12-11T01:21:50.631Z,3.30
2018-12-11T01:22:56.128Z,3.30
2018-12-11T01:24:01.575Z,3.30
2018-12-11T01:25:07.703Z,3.30
2018-12-11T01:26:13.159Z,3.30
2018-12-11T01:27:18.639Z,3.40
2018-12-11T01:28:24.066Z,3.40
2018-12-11T01:29:29.518Z,3.40
2018-12-11T01:30:35.023Z,3.40
2018-12-11T01:31:40.398Z,3.40
2018-12-11T01:32:45.836Z,3.40
2018-12-11T01:33:51.255Z,3.40
2018-12-11T01:34:56.967Z,3.30
2018-12-11T01:36:02.379Z,3.40
2018-12-11T01:37:07.915Z,3.40
2018-12-11T01:38:13.402Z,3.40
2018-12-11T01:39:18.976Z,3.40
2018-12-11T01:40:24.456Z,3.40
2018-12-11T01:41:29.881Z,3.30
2018-12-11T01:42:35.417Z,3.30
2018-12-11T01:43:40.853Z,3.30
2018-12-11T01:44:46.291Z,3.30
2018-12-11T01:45:51.728Z,3.30
2018-12-11T01:46:57.271Z,3.20
2018-12-11T01:48:02.858Z,3.30
2018-12-11T01:49:08.370Z,3.30
2018-12-11T01:50:14.045Z,3.30
2018-12-11T01:51:19.592Z,3.40
2018-12-11T01:52:25.052Z,3.40
2018-12-11T01:53:30.523Z,3.40
2018-12-11T01:54:35.950Z,3.50
2018-12-11T01:55:41.427Z,3.50
2018-12-11T01:56:46.874Z,3.50
2018-12-11T01:57:52.302Z,3.50
2018-12-11T01:58:57.722Z,3.50
2018-12-11T02:00:03.366Z,3.60
2018-12-11T02:01:08.945Z,3.60
2018-12-11T02:02:14.604Z,3.60
2018-12-11T02:03:20.056Z,3.60
2018-12-11T02:04:25.483Z,3.50
2018-12-11T02:05:30.974Z,3.60
2018-12-11T02:06:36.408Z,3.60
2018-12-11T02:07:41.843Z,3.50
2018-12-11T02:08:47.319Z,3.60
2018-12-11T02:09:52.757Z,3.60
2018-12-11T02:10:58.287Z,3.60
2018-12-11T02:12:03.719Z,3.60
2018-12-11T02:13:09.124Z,3.50
2018-12-11T02:14:14.587Z,3.50
2018-12-11T02:15:20.067Z,3.60
2018-12-11T02:16:25.693Z,3.60
2018-12-11T02:17:31.202Z,3.60
2018-12-11T02:18:36.664Z,3.60
2018-12-11T02:19:42.375Z,3.60
2018-12-11T02:20:47.816Z,3.60
2018-12-11T02:21:53.217Z,3.60
2018-12-11T02:22:58.629Z,3.60
2018-12-11T02:24:04.043Z,3.50
2018-12-11T02:25:09.579Z,3.50
2018-12-11T02:26:15.033Z,3.50
2018-12-11T02:27:20.439Z,3.50
2018-12-11T02:28:25.873Z,3.50
2018-12-11T02:29:31.361Z,3.50
2018-12-11T02:30:36.847Z,3.50
2018-12-11T02:31:42.594Z,3.60
2018-12-11T02:32:48.078Z,3.60
2018-12-11T02:33:53.475Z,3.60
2018-12-11T02:34:58.925Z,3.50
2018-12-11T02:36:04.311Z,3.50
2018-12-11T02:37:15.318Z,3.50
2018-12-11T02:38:22.008Z,3.50
2018-12-11T02:39:27.418Z,3.50
2018-12-11T02:40:32.849Z,3.60
2018-12-11T02:41:38.336Z,3.60
2018-12-11T02:42:43.840Z,3.60
2018-12-11T02:43:49.347Z,3.50
2018-12-11T02:44:54.885Z,3.60
2018-12-11T02:46:00.335Z,3.60
2018-12-11T02:47:05.753Z,3.60
2018-12-11T02:48:11.147Z,3.60
2018-12-11T02:49:16.631Z,3.60
2018-12-11T02:50:22.164Z,3.60
2018-12-11T02:51:27.753Z,3.60
2018-12-11T02:52:33.214Z,3.60
2018-12-11T02:53:38.702Z,3.60
2018-12-11T02:54:44.222Z,3.60
2018-12-11T02:55:49.699Z,3.50
2018-12-11T02:56:55.107Z,3.50
2018-12-11T02:58:00.599Z,3.40
2018-12-11T02:59:06.036Z,3.40
2018-12-11T03:00:11.658Z,3.40
2018-12-11T03:01:17.133Z,3.30
2018-12-11T03:02:22.772Z,3.30
2018-12-11T03:03:28.156Z,3.30
2018-12-11T03:04:33.583Z,3.30
2018-12-11T03:05:38.972Z,3.30
2018-12-11T03:06:44.529Z,3.30
2018-12-11T03:07:49.980Z,3.30
2018-12-11T03:08:55.464Z,3.30
2018-12-11T03:10:01.106Z,3.30
2018-12-11T03:11:06.642Z,3.20
2018-12-11T03:12:12.124Z,3.30
2018-12-11T03:13:17.591Z,3.30
2018-12-11T03:14:23.020Z,3.30
2018-12-11T03:15:28.480Z,3.30
2018-12-11T03:16:33.877Z,3.30
2018-12-11T03:17:39.529Z,3.30
2018-12-11T03:18:44.999Z,3.30
2018-12-11T03:19:50.443Z,3.30
2018-12-11T03:20:55.828Z,3.20
2018-12-11T03:22:01.293Z,3.30
2018-12-11T03:23:06.700Z,3.20
2018-12-11T03:24:12.338Z,3.20
2018-12-11T03:25:17.738Z,3.20
2018-12-11T03:26:23.155Z,3.20
2018-12-11T03:27:28.628Z,3.20
2018-12-11T03:28:34.199Z,3.20
2018-12-11T03:29:39.743Z,3.20
2018-12-11T03:30:45.143Z,3.10
2018-12-11T03:31:50.541Z,3.10
2018-12-11T03:32:55.962Z,3.10
2018-12-11T03:34:01.394Z,3.20
2018-12-11T03:35:07.103Z,3.10
2018-12-11T03:36:12.517Z,3.10
2018-12-11T03:37:17.944Z,3.10
2018-12-11T03:38:23.345Z,3.00
2018-12-11T03:39:28.826Z,3.00
2018-12-11T03:40:34.287Z,3.00
2018-12-11T03:41:39.820Z,3.00
2018-12-11T03:42:45.263Z,3.00
2018-12-11T03:43:50.686Z,3.00
2018-12-11T03:44:56.138Z,2.90
2018-12-11T03:46:01.589Z,2.90
2018-12-11T03:47:07.150Z,2.90
2018-12-11T03:48:12.727Z,2.90
2018-12-11T03:49:18.155Z,2.90
2018-12-11T03:50:23.657Z,2.90
2018-12-11T03:51:29.073Z,2.90
2018-12-11T03:52:34.525Z,2.90
2018-12-11T03:53:39.947Z,2.90
2018-12-11T03:54:45.466Z,2.90
2018-12-11T03:55:50.847Z,2.90
2018-12-11T03:56:56.305Z,2.90
2018-12-11T03:58:01.711Z,2.90
2018-12-11T03:59:07.296Z,2.90
2018-12-11T04:00:13.122Z,2.90
2018-12-11T04:01:18.520Z,2.90
2018-12-11T04:02:24.060Z,2.90
2018-12-11T04:03:29.506Z,2.90
2018-12-11T04:04:34.990Z,3.00
2018-12-11T04:05:40.703Z,3.00
2018-12-11T04:06:46.164Z,3.00
2018-12-11T04:07:51.577Z,3.00
2018-12-11T04:08:57.461Z,3.00
2018-12-11T04:11:21.142Z,3.00
2018-12-11T04:12:26.907Z,3.00
2018-12-11T04:13:32.341Z,3.00
2018-12-11T04:14:38.054Z,3.00
2018-12-11T04:15:43.478Z,3.10
2018-12-11T04:16:48.936Z,3.10
2018-12-11T04:17:54.530Z,3.10
2018-12-11T04:18:59.906Z,3.10
2018-12-11T04:20:07.024Z,3.10
2018-12-11T04:21:12.501Z,3.10
2018-12-11T04:22:17.921Z,3.10
2018-12-11T04:23:23.389Z,3.10
2018-12-11T04:24:28.842Z,3.10
2018-12-11T04:25:34.268Z,3.10
2018-12-11T04:26:39.627Z,3.10
2018-12-11T04:27:45.092Z,3.10
2018-12-11T04:28:50.542Z,3.10
2018-12-11T04:29:56.050Z,3.10
2018-12-11T04:31:01.491Z,3.10
2018-12-11T04:32:06.931Z,3.10
2018-12-11T04:33:12.467Z,3.10
2018-12-11T04:34:17.924Z,3.10
2018-12-11T04:35:23.366Z,3.10
2018-12-11T04:36:28.835Z,3.10
2018-12-11T04:37:34.248Z,3.10
2018-12-11T04:38:39.712Z,3.10
2018-12-11T04:39:45.143Z,3.10
2018-12-11T04:40:50.575Z,3.10
2018-12-11T04:41:55.999Z,3.10
2018-12-11T04:43:01.390Z,3.10
2018-12-11T04:44:06.792Z,3.10
2018-12-11T04:45:12.292Z,3.10
2018-12-11T04:46:17.708Z,3.20
2018-12-11T04:47:23.159Z,3.20
2018-12-11T04:48:28.614Z,3.20
2018-12-11T04:49:34.106Z,3.20
2018-12-11T04:50:39.710Z,3.20
2018-12-11T04:51:45.098Z,3.10
2018-12-11T04:52:50.622Z,3.10
2018-12-11T04:53:56.238Z,3.10
2018-12-11T04:55:01.735Z,3.10
2018-12-11T04:56:07.202Z,3.10
2018-12-11T04:57:12.666Z,3.00
2018-12-11T04:58:18.098Z,3.00
2018-12-11T04:59:23.535Z,3.00
2018-12-11T05:00:29.024Z,3.00
2018-12-11T05:01:34.419Z,3.00
2018-12-11T05:02:40.003Z,2.90
2018-12-11T05:03:45.426Z,2.90
2018-12-11T05:04:51.079Z,2.90
2018-12-11T05:05:56.507Z,2.90
2018-12-11T05:07:01.915Z,2.90
2018-12-11T05:08:12.663Z,2.90
2018-12-11T05:09:18.169Z,2.90
2018-12-11T05:10:23.635Z,2.80
2018-12-11T05:11:29.045Z,2.80
2018-12-11T05:12:34.503Z,2.80
2018-12-11T05:13:39.984Z,2.70
2018-12-11T05:14:45.390Z,2.70
2018-12-11T05:15:50.839Z,2.70
2018-12-11T05:16:56.366Z,2.60
2018-12-11T05:18:01.811Z,2.60
2018-12-11T05:19:07.274Z,2.70
2018-12-11T05:20:12.711Z,2.60
2018-12-11T05:21:18.239Z,2.60
2018-12-11T05:22:23.685Z,2.50
2018-12-11T05:23:29.172Z,2.60
2018-12-11T05:24:34.595Z,2.50
2018-12-11T05:25:40.076Z,2.50
2018-12-11T05:26:45.529Z,2.60
2018-12-11T05:27:51.022Z,2.60
2018-12-11T05:28:56.507Z,2.60
2018-12-11T05:30:02.024Z,2.60
2018-12-11T05:31:07.436Z,2.60
2018-12-11T05:32:12.850Z,2.60
2018-12-11T05:33:18.298Z,2.50
2018-12-11T05:34:23.809Z,2.60
2018-12-11T05:35:29.251Z,2.60
2018-12-11T05:36:34.639Z,2.50
2018-12-11T05:37:40.220Z,2.50
2018-12-11T05:38:45.667Z,2.50
2018-12-11T05:39:51.100Z,2.50
2018-12-11T05:40:56.504Z,2.60
2018-12-11T05:42:01.958Z,2.60
2018-12-11T05:43:07.400Z,2.60
2018-12-11T05:44:12.910Z,2.60
2018-12-11T05:45:19.168Z,2.60
2018-12-11T05:46:24.707Z,2.60
2018-12-11T05:47:30.175Z,2.60
2018-12-11T05:48:35.651Z,2.60
2018-12-11T05:49:41.159Z,2.60
2018-12-11T05:50:46.844Z,2.60
2018-12-11T05:51:52.391Z,2.60
2018-12-11T05:52:57.853Z,2.60
2018-12-11T05:54:03.286Z,2.60
2018-12-11T05:55:08.786Z,2.60
2018-12-11T05:56:14.164Z,2.60
2018-12-11T05:57:19.712Z,2.60
2018-12-11T05:58:25.168Z,2.50
2018-12-11T05:59:30.777Z,2.50
2018-12-11T06:00:36.226Z,2.50
2018-12-11T06:01:41.636Z,2.50
2018-12-11T06:02:47.241Z,2.50
2018-12-11T06:03:52.768Z,2.50
2018-12-11T06:04:58.313Z,2.50
2018-12-11T06:06:03.782Z,2.50
2018-12-11T06:07:09.198Z,2.50
2018-12-11T06:08:14.618Z,2.60
2018-12-11T06:09:20.051Z,2.60
2018-12-11T06:10:25.504Z,2.50
2018-12-11T06:11:31.036Z,2.50
2018-12-11T06:12:36.544Z,2.50
2018-12-11T06:13:41.968Z,2.50
2018-12-11T06:14:47.412Z,2.50
2018-12-11T06:15:52.816Z,2.60
2018-12-11T06:16:58.286Z,2.60
2018-12-11T06:18:03.705Z,2.60
2018-12-11T06:19:09.150Z,2.70
2018-12-11T06:20:14.899Z,2.70
2018-12-11T06:21:20.310Z,2.70
2018-12-11T06:22:25.942Z,2.60
2018-12-11T06:23:31.420Z,2.60
2018-12-11T06:24:37.435Z,2.60
2018-12-11T06:25:42.907Z,2.70
2018-12-11T06:26:48.408Z,2.60
2018-12-11T06:27:53.791Z,2.60
2018-12-11T06:28:59.291Z,2.70
2018-12-11T06:30:05.984Z,2.60
2018-12-11T06:31:11.786Z,2.60
2018-12-11T06:32:17.196Z,2.60
2018-12-11T06:33:22.765Z,2.70
2018-12-11T06:34:28.279Z,2.60
2018-12-11T06:35:33.894Z,2.60
2018-12-11T06:36:39.497Z,2.60
2018-12-11T06:37:45.087Z,2.50
2018-12-11T06:38:50.645Z,2.60
2018-12-11T06:39:56.205Z,2.50
2018-12-11T06:41:01.684Z,2.50
2018-12-11T06:42:07.118Z,2.50
2018-12-11T06:43:12.674Z,2.50
2018-12-11T06:44:18.287Z,2.50
2018-12-11T06:45:23.758Z,2.50
2018-12-11T06:46:30.483Z,2.50
2018-12-11T06:47:36.034Z,2.50
2018-12-11T06:48:41.547Z,2.50
2018-12-11T06:49:49.239Z,2.50
2018-12-11T06:50:54.654Z,2.50
2018-12-11T06:52:00.622Z,2.50
2018-12-11T06:53:06.114Z,2.50
2018-12-11T06:54:11.718Z,2.50
2018-12-11T06:55:17.174Z,2.40
2018-12-11T06:56:22.679Z,2.40
2018-12-11T06:57:28.183Z,2.40
2018-12-11T06:58:33.663Z,2.40
2018-12-11T06:59:39.112Z,2.40
2018-12-11T07:00:44.643Z,2.40
2018-12-11T07:01:50.032Z,2.40
2018-12-11T07:02:55.410Z,2.40
2018-12-11T07:04:00.807Z,2.40
2018-12-11T07:05:07.342Z,2.40
2018-12-11T07:06:13.043Z,2.40
2018-12-11T07:07:18.598Z,2.40
2018-12-11T07:08:24.072Z,2.40
2018-12-11T07:09:29.632Z,2.40
2018-12-11T07:10:35.073Z,2.40
2018-12-11T07:11:40.574Z,2.40
2018-12-11T07:12:45.981Z,2.50
2018-12-11T07:13:51.400Z,2.50
2018-12-11T07:15:00.458Z,2.60
2018-12-11T07:16:05.904Z,2.60
2018-12-11T07:17:11.483Z,2.60
2018-12-11T07:18:16.890Z,2.70
2018-12-11T07:19:22.516Z,2.70
2018-12-11T07:20:27.999Z,2.70
2018-12-11T07:21:33.522Z,2.70
2018-12-11T07:22:39.018Z,2.70
2018-12-11T07:23:44.434Z,2.60
2018-12-11T07:24:49.961Z,2.60
2018-12-11T07:25:55.351Z,2.60
2018-12-11T07:27:00.770Z,2.60
2018-12-11T07:28:06.267Z,2.60
2018-12-11T07:29:11.672Z,2.60
2018-12-11T07:30:17.171Z,2.60
2018-12-11T07:31:22.792Z,2.50
2018-12-11T07:32:28.220Z,2.50
2018-12-11T07:33:33.668Z,2.50
2018-12-11T07:34:39.084Z,2.50
2018-12-11T07:35:44.510Z,2.50
2018-12-11T07:36:49.919Z,2.50
2018-12-11T07:37:55.430Z,2.40
2018-12-11T07:39:00.802Z,2.40
2018-12-11T07:40:06.915Z,2.40
2018-12-11T07:41:12.433Z,2.40
2018-12-11T07:42:17.935Z,2.40
2018-12-11T07:43:23.450Z,2.40
2018-12-11T07:44:28.834Z,2.40
2018-12-11T07:45:34.321Z,2.40
2018-12-11T07:46:40.650Z,2.30
2018-12-11T07:47:46.029Z,2.30
2018-12-11T07:48:51.482Z,2.30
2018-12-11T07:49:56.918Z,2.30
2018-12-11T07:51:02.303Z,2.30
2018-12-11T07:52:07.787Z,2.30
2018-12-11T07:53:13.318Z,2.30
2018-12-11T07:54:18.739Z,2.30
2018-12-11T07:55:24.182Z,2.30
2018-12-11T07:56:29.689Z,2.30
2018-12-11T07:57:35.135Z,2.30
2018-12-11T07:58:40.762Z,2.30
2018-12-11T07:59:46.138Z,2.30
2018-12-11T08:00:51.539Z,2.30
2018-12-11T08:01:57.051Z,2.30
2018-12-11T08:03:02.448Z,2.30
2018-12-11T08:04:07.884Z,2.30
2018-12-11T08:05:13.390Z,2.30
2018-12-11T08:06:18.844Z,2.30
2018-12-11T08:07:24.403Z,2.20
2018-12-11T08:08:29.884Z,2.30
2018-12-11T08:09:35.336Z,2.30
2018-12-11T08:10:40.811Z,2.30
2018-12-11T08:11:46.286Z,2.30
2018-12-11T08:12:51.923Z,2.30
2018-12-11T08:13:57.457Z,2.30
2018-12-11T08:15:02.866Z,2.30
2018-12-11T08:16:08.322Z,2.40
2018-12-11T08:17:13.849Z,2.40
2018-12-11T08:18:19.292Z,2.40
2018-12-11T08:19:24.854Z,2.40
2018-12-11T08:20:30.354Z,2.50
2018-12-11T08:21:35.947Z,2.50
2018-12-11T08:22:41.330Z,2.60
2018-12-11T08:23:46.756Z,2.60
2018-12-11T08:24:52.257Z,2.60
2018-12-11T08:25:57.676Z,2.70
2018-12-11T08:27:03.223Z,2.70
2018-12-11T08:28:08.775Z,2.70
2018-12-11T08:29:14.234Z,2.80
2018-12-11T08:30:19.726Z,2.70
2018-12-11T08:31:25.152Z,2.80
2018-12-11T08:32:30.703Z,2.80
2018-12-11T08:33:36.144Z,2.80
2018-12-11T08:34:41.582Z,2.80
2018-12-11T08:35:47.016Z,2.80
2018-12-11T08:36:52.420Z,2.80
2018-12-11T08:37:57.862Z,2.80
2018-12-11T08:39:04.751Z,2.80
2018-12-11T08:40:10.827Z,2.80
2018-12-11T08:41:16.240Z,2.80
2018-12-11T08:42:21.735Z,2.80
2018-12-11T08:43:27.405Z,2.80
2018-12-11T08:44:33.022Z,2.80
2018-12-11T08:45:38.410Z,2.80
2018-12-11T08:46:43.973Z,2.80
2018-12-11T08:47:49.350Z,2.80
2018-12-11T08:48:55.037Z,2.80
2018-12-11T08:50:00.440Z,2.80
2018-12-11T08:51:05.853Z,2.80
2018-12-11T08:52:11.354Z,2.80
2018-12-11T08:53:16.780Z,2.70
2018-12-11T08:54:22.217Z,2.80
2018-12-11T08:55:27.851Z,2.80
2018-12-11T08:56:33.435Z,2.80
2018-12-11T08:57:39.016Z,2.90
2018-12-11T08:58:44.510Z,2.90
2018-12-11T08:59:49.898Z,3.00
2018-12-11T09:00:55.510Z,3.10
2018-12-11T09:02:00.966Z,3.20
2018-12-11T09:03:06.391Z,3.20
2018-12-11T09:04:11.880Z,3.20
2018-12-11T09:05:17.310Z,3.40
2018-12-11T09:06:22.789Z,3.40
2018-12-11T09:07:28.401Z,3.50
2018-12-11T09:08:33.865Z,3.70
2018-12-11T09:09:39.259Z,3.70
2018-12-11T09:10:44.775Z,3.80
2018-12-11T09:11:50.254Z,3.80
2018-12-11T09:12:55.686Z,3.80
2018-12-11T09:14:01.064Z,3.90
2018-12-11T09:15:07.566Z,4.00
2018-12-11T09:16:13.040Z,4.00
2018-12-11T09:17:18.452Z,4.00
2018-12-11T09:18:23.870Z,4.10
2018-12-11T09:19:29.398Z,4.10
2018-12-11T09:20:34.755Z,4.10
2018-12-11T09:21:40.170Z,4.10
2018-12-11T09:22:45.592Z,4.10
2018-12-11T09:23:50.974Z,4.20
2018-12-11T09:24:56.527Z,4.20
2018-12-11T09:26:01.907Z,4.20
2018-12-11T09:27:07.327Z,4.30
2018-12-11T09:28:12.904Z,4.20
2018-12-11T09:29:18.428Z,4.20
2018-12-11T09:30:23.867Z,4.30
2018-12-11T09:31:29.344Z,4.30
2018-12-11T09:32:34.793Z,4.30
2018-12-11T09:33:40.800Z,4.30
2018-12-11T09:34:46.194Z,4.30
2018-12-11T09:35:51.626Z,4.40
2018-12-11T09:36:57.056Z,4.30
2018-12-11T09:38:02.531Z,4.30
2018-12-11T09:39:09.267Z,4.30
2018-12-11T09:40:14.727Z,4.30
2018-12-11T09:41:20.166Z,4.30
2018-12-11T09:42:28.118Z,4.30
2018-12-11T09:43:33.200Z,4.30
2018-12-11T09:44:38.618Z,4.30
2018-12-11T09:45:44.120Z,4.30
2018-12-11T09:46:49.994Z,4.30
2018-12-11T09:47:55.430Z,4.20
2018-12-11T09:49:00.908Z,4.20
2018-12-11T09:50:06.852Z,4.20
2018-12-11T09:51:18.266Z,4.20
2018-12-11T09:52:23.666Z,4.10
2018-12-11T09:53:29.138Z,4.20
2018-12-11T09:54:34.709Z,4.20
2018-12-11T09:55:40.116Z,4.10
2018-12-11T09:56:45.532Z,4.10
2018-12-11T09:57:50.915Z,4.10
2018-12-11T09:58:56.306Z,4.10
2018-12-11T10:00:01.771Z,4.00
2018-12-11T10:01:07.239Z,4.00
2018-12-11T10:02:12.863Z,4.00
2018-12-11T10:03:18.304Z,4.00
2018-12-11T10:04:23.675Z,4.00
2018-12-11T10:05:29.589Z,4.00
2018-12-11T10:06:36.275Z,4.00
2018-12-11T10:07:41.910Z,4.10
2018-12-11T10:08:47.415Z,4.10
2018-12-11T10:09:52.851Z,4.20
2018-12-11T10:10:58.256Z,4.30
2018-12-11T10:12:03.762Z,4.40
2018-12-11T10:13:09.143Z,4.40
2018-12-11T10:14:14.548Z,4.50
2018-12-11T10:15:20.058Z,4.60
2018-12-11T10:16:25.732Z,4.60
2018-12-11T10:17:31.147Z,4.70
2018-12-11T10:18:36.547Z,4.80
2018-12-11T10:19:42.955Z,4.80
2018-12-11T10:20:48.489Z,4.90
2018-12-11T10:21:54.071Z,4.90
2018-12-11T10:23:00.153Z,5.00
2018-12-11T10:24:05.638Z,5.00
2018-12-11T10:25:11.154Z,5.10
2018-12-11T10:26:16.601Z,5.20
2018-12-11T10:27:22.162Z,5.20
2018-12-11T10:28:27.593Z,5.20
2018-12-11T10:29:33.067Z,5.20
2018-12-11T10:30:43.646Z,5.30
2018-12-11T10:31:49.088Z,5.30
2018-12-11T10:32:54.541Z,5.30
2018-12-11T10:33:59.994Z,5.40
2018-12-11T10:35:06.368Z,5.40
2018-12-11T10:36:11.808Z,5.50
2018-12-11T10:37:17.270Z,5.50
2018-12-11T10:38:22.878Z,5.50
2018-12-11T10:39:28.322Z,5.60
2018-12-11T10:40:33.754Z,5.60
2018-12-11T10:41:39.214Z,5.60
2018-12-11T10:42:44.735Z,5.60
2018-12-11T10:43:50.260Z,5.60
2018-12-11T10:44:55.699Z,5.70
2018-12-11T10:46:01.381Z,5.70
2018-12-11T10:47:06.862Z,5.80
2018-12-11T10:48:12.384Z,5.80
2018-12-11T10:49:17.887Z,5.90
2018-12-11T10:50:25.450Z,5.90
2018-12-11T10:51:30.912Z,6.00
2018-12-11T10:52:36.674Z,6.00
2018-12-11T10:53:42.157Z,6.10
2018-12-11T10:54:47.611Z,6.10
2018-12-11T10:55:52.994Z,6.10
2018-12-11T10:56:58.359Z,6.20
2018-12-11T10:58:03.898Z,6.20
2018-12-11T10:59:10.315Z,6.20
2018-12-11T11:00:51.584Z,6.20
2018-12-11T11:03:21.393Z,6.30
2018-12-11T11:04:27.053Z,6.40
2018-12-11T11:05:32.625Z,6.40
2018-12-11T11:06:38.052Z,6.50
2018-12-11T11:07:43.768Z,6.50
2018-12-11T11:08:49.422Z,6.50
2018-12-11T11:09:55.161Z,6.60
2018-12-11T11:11:00.759Z,6.70
2018-12-11T11:12:06.333Z,6.70
2018-12-11T11:13:11.741Z,6.70
2018-12-11T11:14:17.245Z,6.70
2018-12-11T11:15:22.774Z,6.80
2018-12-11T11:16:28.166Z,6.80
2018-12-11T11:17:33.615Z,6.90
2018-12-11T11:18:39.133Z,6.90
2018-12-11T11:19:44.568Z,7.00
2018-12-11T11:20:50.219Z,7.00
2018-12-11T11:21:55.803Z,7.00
2018-12-11T11:23:01.345Z,7.10
2018-12-11T11:24:06.794Z,7.10
2018-12-11T11:25:12.472Z,7.20
2018-12-11T11:26:17.893Z,7.20
2018-12-11T11:27:23.429Z,7.20
2018-12-11T11:28:28.896Z,7.30
2018-12-11T11:29:34.395Z,7.30
2018-12-11T11:30:39.965Z,7.30
2018-12-11T11:31:45.437Z,7.40
2018-12-11T11:32:50.916Z,7.40
2018-12-11T11:33:58.557Z,7.40
2018-12-11T11:35:04.519Z,7.30
2018-12-11T11:36:09.915Z,7.20
2018-12-11T11:37:15.277Z,7.20
2018-12-11T11:38:20.744Z,7.20
2018-12-11T11:39:26.304Z,7.20
2018-12-11T11:40:31.699Z,7.20
2018-12-11T11:41:37.144Z,7.10
2018-12-11T11:42:42.760Z,7.10
2018-12-11T11:43:48.153Z,7.10
2018-12-11T11:44:53.798Z,7.10
2018-12-11T11:45:59.260Z,7.00
2018-12-11T11:47:04.735Z,7.00
2018-12-11T11:48:10.198Z,6.90
2018-12-11T11:49:15.575Z,6.90
2018-12-11T11:50:21.463Z,6.90
2018-12-11T11:51:26.861Z,6.80
2018-12-11T11:52:32.452Z,6.80
2018-12-11T11:53:38.575Z,6.80
2018-12-11T11:54:43.974Z,6.80
2018-12-11T11:55:49.497Z,6.70
2018-12-11T11:56:54.905Z,6.80
2018-12-11T11:58:00.509Z,6.80
2018-12-11T11:59:05.884Z,6.90
2018-12-11T12:00:14.341Z,6.80
2018-12-11T12:01:19.798Z,6.70
2018-12-11T12:02:25.372Z,6.70
2018-12-11T12:03:30.818Z,6.70
2018-12-11T12:04:36.355Z,6.70
2018-12-11T12:05:41.903Z,6.70
2018-12-11T12:06:47.341Z,6.70
2018-12-11T12:07:52.880Z,6.70
2018-12-11T12:08:59.437Z,6.70
2018-12-11T12:10:07.656Z,6.70
2018-12-11T12:11:12.994Z,6.70
2018-12-11T12:12:18.415Z,6.80
2018-12-11T12:13:23.852Z,6.80
2018-12-11T12:14:29.489Z,6.80
2018-12-11T12:15:34.896Z,6.80
2018-12-11T12:16:40.574Z,6.90
2018-12-11T12:17:46.010Z,6.90
2018-12-11T12:18:51.732Z,6.90
2018-12-11T12:19:57.183Z,6.90
2018-12-11T12:21:02.603Z,6.90
2018-12-11T12:22:08.121Z,6.90
2018-12-11T12:23:13.551Z,6.90
2018-12-11T12:24:18.921Z,6.90
2018-12-11T12:25:24.314Z,6.80
2018-12-11T12:26:29.943Z,6.80
2018-12-11T12:27:35.614Z,6.80
2018-12-11T12:28:41.039Z,6.70
2018-12-11T12:29:46.527Z,6.70
2018-12-11T12:32:08.835Z,6.70
2018-12-11T12:33:14.317Z,6.70
2018-12-11T12:34:19.811Z,6.60
2018-12-11T12:35:25.250Z,6.60
2018-12-11T12:36:30.659Z,6.60
2018-12-11T12:37:36.177Z,6.50
2018-12-11T12:38:41.737Z,6.50
2018-12-11T12:39:47.271Z,6.50
2018-12-11T12:40:52.691Z,6.60
2018-12-11T12:41:58.145Z,6.60
2018-12-11T12:43:03.607Z,6.60
2018-12-11T12:44:09.087Z,6.60
2018-12-11T12:45:14.652Z,6.60
2018-12-11T12:46:20.070Z,6.60
2018-12-11T12:47:25.494Z,6.60
2018-12-11T12:48:30.959Z,6.60
2018-12-11T12:49:36.378Z,6.60
2018-12-11T12:50:41.863Z,6.60
2018-12-11T12:51:47.330Z,6.60
2018-12-11T12:52:52.743Z,6.70
2018-12-11T12:53:58.268Z,6.70
2018-12-11T12:55:03.761Z,6.80
2018-12-11T12:56:09.275Z,6.80
2018-12-11T12:57:15.100Z,6.80
2018-12-11T12:58:20.516Z,6.90
2018-12-11T12:59:25.905Z,6.90
2018-12-11T13:00:31.302Z,6.90
2018-12-11T13:01:36.786Z,6.90
2018-12-11T13:02:42.264Z,7.00
2018-12-11T13:05:04.512Z,7.00
2018-12-11T13:06:09.909Z,7.00
2018-12-11T13:07:15.432Z,7.00
2018-12-11T13:08:20.875Z,7.00
2018-12-11T13:09:26.445Z,7.00
2018-12-11T13:10:31.965Z,7.00
2018-12-11T13:11:37.399Z,7.00
2018-12-11T13:12:42.883Z,7.00
2018-12-11T13:13:48.388Z,7.10
2018-12-11T13:14:53.822Z,7.00
2018-12-11T13:15:59.264Z,7.00
2018-12-11T13:17:04.723Z,7.00
2018-12-11T13:18:10.176Z,7.00
2018-12-11T13:19:15.782Z,7.00
2018-12-11T13:20:21.234Z,7.00
2018-12-11T13:21:26.684Z,7.00
2018-12-11T13:22:32.433Z,7.00
2018-12-11T13:23:37.933Z,7.00
2018-12-11T13:24:43.388Z,7.00
2018-12-11T13:25:48.837Z,7.00
2018-12-11T13:26:54.274Z,7.00
2018-12-11T13:27:59.844Z,7.00
2018-12-11T13:29:05.297Z,7.00
2018-12-11T13:30:11.114Z,7.00
2018-12-11T13:31:16.544Z,7.00
2018-12-11T13:32:22.049Z,7.00
2018-12-11T13:33:27.587Z,6.90
2018-12-11T13:34:32.963Z,6.90
2018-12-11T13:35:38.526Z,6.90
2018-12-11T13:36:44.075Z,6.90
2018-12-11T13:37:49.575Z,6.90
2018-12-11T13:38:55.390Z,6.90
2018-12-11T13:40:00.831Z,6.90
2018-12-11T13:41:06.257Z,6.90
2018-12-11T13:42:11.789Z,6.80
2018-12-11T13:43:17.220Z,6.90
2018-12-11T13:44:22.879Z,6.80
2018-12-11T13:45:28.321Z,6.80
2018-12-11T13:46:34.326Z,6.90
2018-12-11T13:47:39.828Z,6.80
2018-12-11T13:48:45.303Z,6.80
2018-12-11T13:49:50.841Z,6.80
2018-12-11T13:50:56.310Z,6.80
2018-12-11T13:52:01.711Z,6.80
2018-12-11T13:53:07.118Z,6.80
2018-12-11T13:54:12.513Z,6.80
2018-12-11T13:55:18.207Z,6.70
2018-12-11T13:56:23.647Z,6.70
2018-12-11T13:57:29.090Z,6.70
2018-12-11T13:58:34.467Z,6.70
2018-12-11T13:59:39.863Z,6.60
2018-12-11T14:00:45.364Z,6.60
2018-12-11T14:01:51.063Z,6.60
2018-12-11T14:02:56.683Z,6.60
2018-12-11T14:04:02.147Z,6.60
2018-12-11T14:05:07.639Z,6.60
2018-12-11T14:06:13.143Z,6.60
2018-12-11T14:07:18.559Z,6.50
2018-12-11T14:08:23.955Z,6.50
2018-12-11T14:09:34.707Z,6.50
2018-12-11T14:10:40.106Z,6.50
2018-12-11T14:11:45.653Z,6.50
2018-12-11T14:12:51.180Z,6.50
2018-12-11T14:13:56.639Z,6.50
2018-12-11T14:15:02.217Z,6.40
2018-12-11T14:16:07.707Z,6.40
2018-12-11T14:17:13.130Z,6.30
2018-12-11T14:18:18.531Z,6.40
2018-12-11T14:19:24.028Z,6.40
2018-12-11T14:20:29.515Z,6.40
2018-12-11T14:21:35.091Z,6.40
2018-12-11T14:22:40.475Z,6.40
2018-12-11T14:23:45.890Z,6.40
2018-12-11T14:24:51.299Z,6.40
2018-12-11T14:25:56.751Z,6.50
2018-12-11T14:27:02.174Z,6.50
2018-12-11T14:28:07.770Z,6.50
2018-12-11T14:29:13.264Z,6.60
2018-12-11T14:30:18.936Z,6.50
2018-12-11T14:31:26.738Z,6.50
2018-12-11T14:32:32.751Z,6.60
2018-12-11T14:33:38.250Z,6.60
2018-12-11T14:34:43.802Z,6.60
2018-12-11T14:35:49.397Z,6.70
2018-12-11T14:36:54.967Z,6.70
2018-12-11T14:38:00.398Z,6.60
2018-12-11T14:39:08.426Z,6.60